Latest Weather Observations for Goulburn Airport

IDN60801

Issued at 7:35 am EST Sunday 21 September 2014 (issued every 30 minutes, with the page automatically refreshed every 10 minutes)

About weather observations | Map of weather stations | Latest weather observations for NSW | Other Formats
Station Details ID: 070330 Name: GOULBURN AIRPORT AWS Lat: -34.81 Lon: 149.73 Height: 640.0 m
Data from the previous 72 hours. | See also: Recent months at Goulburn Airport
Date/Time
EST
Temp
°C
App
Temp
°C
Dew
Point
Rel
Hum
%
Delta-T
°C
Wind Press
QNH
hPa
Press
MSL
hPa
Rain
since 9 am
mm
Dir
 
Spd
km/h
Gust
km/h
Spd
kts
Gust
kts
21/07:30am 4.1 2.4 3.8 98 0.1 SE 2 6 1 3 1030.1 1030.2 0.0
21/07:00am 2.3 -0.7 2.0 98 0.1 SE 7 9 4 5 1029.6 1029.8 0.0
21/06:30am 0.5 -2.6 0.1 97 0.2 ESE 6 7 3 4 1028.8 1028.9 0.0
21/06:00am 0.6 -2.5 0.0 96 0.2 E 6 9 3 5 1028.6 1028.7 0.0
21/05:30am 1.5 -0.3 1.1 97 0.2 CALM 0 0 0 0 1028.3 1028.4 0.0
21/05:00am 1.7 -0.1 1.3 97 0.2 CALM 0 0 0 0 1027.8 1028.0 0.0
21/04:30am 2.0 0.3 1.6 97 0.2 CALM 0 0 0 0 1027.6 1027.8 0.0
21/04:08am 2.3 0.6 1.9 97 0.2 CALM 0 0 0 0 1027.3 1027.4 0.0
21/04:00am 2.3 0.6 1.9 97 0.2 CALM 0 4 0 2 1027.4 1027.5 0.0
21/03:30am 1.9 -0.2 1.5 97 0.2 NE 2 6 1 3 1027.6 1027.8 0.0
21/03:00am 0.1 -2.7 -0.5 96 0.2 SSE 4 6 2 3 1027.7 1027.9 0.0
21/02:58am 0.0 -2.8 -0.6 96 0.2 SSE 4 6 2 3 1027.7 1027.9 0.0
21/02:30am 0.0 -2.5 -0.7 95 0.3 S 2 7 1 4 1027.8 1028.0 0.0
21/02:00am 0.7 -1.3 0.0 95 0.3 CALM 0 0 0 0 1028.0 1028.2 0.0
21/01:30am 0.8 -1.2 -0.1 94 0.3 CALM 0 0 0 0 1028.4 1028.5 0.0
21/01:00am 1.4 -0.5 0.5 94 0.3 CALM 0 0 0 0 1028.7 1028.8 0.0
21/12:30am 1.1 -0.9 0.1 93 0.4 S 0 0 0 0 1028.7 1028.8 0.0
21/12:00am 2.0 0.2 1.1 94 0.4 S 0 0 0 0 1028.6 1028.7 0.0
 
Date/Time
EST
Temp
°C
App
Temp
°C
Dew
Point
Rel
Hum
%
Delta-T
°C
Wind Press
QNH
hPa
Press
MSL
hPa
Rain
since 9 am
mm
Dir
 
Spd
km/h
Gust
km/h
Spd
kts
Gust
kts
20/11:30pm 2.2 -0.9 1.2 93 0.4 S 7 9 4 5 1028.6 1028.7 0.0
20/11:00pm 2.7 0.2 1.7 93 0.4 SSW 4 7 2 4 1028.6 1028.7 0.0
20/10:30pm 3.0 1.2 1.4 89 0.6 CALM 0 7 0 4 1028.8 1028.9 0.0
20/10:00pm 3.9 0.9 1.9 87 0.8 S 7 9 4 5 1028.7 1028.8 0.0
20/09:30pm 4.7 1.9 2.9 88 0.8 SE 7 9 4 5 1028.5 1028.6 0.0
20/09:00pm 5.0 2.2 2.0 81 1.2 SSE 6 7 3 4 1028.3 1028.4 0.0
20/08:30pm 6.7 3.5 2.8 76 1.7 SE 9 15 5 8 1028.0 1028.2 0.0
20/08:00pm 7.2 3.5 2.3 71 2.1 ESE 11 17 6 9 1027.5 1027.6 0.0
20/07:30pm 8.8 4.8 2.6 65 2.7 E 13 19 7 10 1026.9 1027.0 0.0
20/07:00pm 8.0 4.8 3.1 71 2.1 ESE 9 13 5 7 1026.2 1026.4 0.0
20/06:30pm 8.9 5.3 3.1 67 2.6 E 11 17 6 9 1025.5 1025.6 0.0
20/06:00pm 11.0 6.0 3.5 60 3.4 E 19 24 10 13 1024.9 1024.9 0.0
20/05:30pm 12.7 7.8 3.9 55 4.1 E 19 24 10 13 1024.1 1024.2 0.0
20/05:00pm 15.5 12.1 -0.7 33 7.0 S 7 9 4 5 1023.5 1023.5 0.0
20/04:30pm 15.9 12.2 -3.1 27 7.9 SSW 7 13 4 7 1023.3 1023.3 0.0
20/04:00pm 15.9 12.3 0.5 35 6.8 N 9 11 5 6 1023.1 1023.2 0.0
20/03:30pm 16.3 13.7 0.8 35 7.0 SSW 4 9 2 5 1022.9 1023.0 0.0
20/03:00pm 16.3 13.0 0.0 33 7.2 SW 7 9 4 5 1022.9 1023.0 0.0
20/02:30pm 15.8 12.5 0.4 35 6.9 S 7 13 4 7 1023.0 1023.1 0.0
20/02:00pm 15.6 12.8 -0.6 33 7.0 E 4 7 2 4 1023.1 1023.2 0.0
20/01:30pm 15.3 12.3 2.1 41 6.1 S 7 13 4 7 1023.5 1023.5 0.0
20/01:00pm 15.3 12.5 3.1 44 5.7 SE 7 11 4 6 1023.6 1023.7 0.0
20/12:30pm 14.8 11.8 2.0 42 5.8 SSE 7 13 4 7 1023.7 1023.8 0.0
20/12:00pm 14.1 11.0 1.1 41 5.8 SSE 7 15 4 8 1024.0 1024.1 0.0
20/11:30am 13.9 10.8 3.4 49 4.9 WSW 9 15 5 8 1024.4 1024.5 0.0
20/11:00am 13.0 10.3 2.5 49 4.8 S 6 11 3 6 1024.4 1024.5 0.0
20/10:30am 12.0 9.3 3.5 56 3.9 SSW 7 13 4 7 1024.5 1024.6 0.0
20/10:00am 11.9 9.6 4.9 62 3.3 E 6 9 3 5 1024.7 1024.8 0.0
20/09:30am 10.6 8.1 4.7 67 2.8 E 7 9 4 5 1024.7 1024.8 0.0
20/09:00am 8.2 5.7 3.5 72 2.1 S 6 11 3 6 1024.9 1024.9 0.0
20/08:30am 6.9 5.4 2.8 75 1.8 CALM 0 0 0 0 1024.7 1024.8 0.0
20/08:00am 4.8 2.8 2.2 83 1.1 NNE 2 6 1 3 1024.5 1024.6 0.0
20/07:30am 2.7 0.9 1.5 92 0.5 CALM 0 0 0 0 1024.3 1024.4 0.0
20/07:00am 0.2 -1.9 -0.5 95 0.3 CALM 0 6 0 3 1023.9 1024.0 0.0
20/06:30am -1.5 -4.2 -2.3 94 0.2 SSE 2 9 1 5 1023.7 1023.8 0.0
20/06:00am -2.0 -4.4 -2.8 94 0.2 CALM 0 0 0 0 1023.1 1023.2 0.0
20/05:30am -1.8 -4.5 -2.5 95 0.2 ESE 2 6 1 3 1022.6 1022.7 0.0
20/05:00am -2.2 -4.6 -3.0 94 0.2 CALM 0 0 0 0 1022.2 1022.3 0.0
20/04:30am -1.6 -3.9 -2.4 94 0.2 CALM 0 0 0 0 1021.8 1021.8 0.0
20/04:00am -1.0 -3.2 -1.7 95 0.2 CALM 0 0 0 0 1021.6 1021.6 0.0
20/03:30am -1.4 -3.7 -2.4 93 0.3 CALM 0 0 0 0 1021.3 1021.4 0.0
20/03:00am -1.0 -3.2 -1.8 94 0.2 CALM 0 6 0 3 1021.3 1021.4 0.0
20/02:30am -1.1 -3.3 -1.9 94 0.2 CALM 0 0 0 0 1021.4 1021.5 0.0
20/02:00am -0.5 -2.7 -1.5 93 0.3 CALM 0 0 0 0 1021.4 1021.5 0.0
20/01:30am -0.4 -2.6 -1.4 93 0.3 CALM 0 0 0 0 1021.7 1021.7 0.0
20/01:00am -0.1 -2.3 -1.2 92 0.4 CALM 0 0 0 0 1021.8 1021.8 0.0
20/12:30am 0.3 -1.8 -1.0 91 0.5 CALM 0 0 0 0 1021.9 1021.9 0.0
20/12:00am 0.8 -1.3 -0.6 90 0.5 CALM 0 0 0 0 1022.0 1022.0 0.0
 
Date/Time
EST
Temp
°C
App
Temp
°C
Dew
Point
Rel
Hum
%
Delta-T
°C
Wind Press
QNH
hPa
Press
MSL
hPa
Rain
since 9 am
mm
Dir
 
Spd
km/h
Gust
km/h
Spd
kts
Gust
kts
19/11:30pm 1.2 -0.9 -0.7 87 0.7 CALM 0 0 0 0 1021.9 1021.9 0.0
19/11:00pm 1.8 -0.2 -0.1 87 0.7 CALM 0 0 0 0 1022.1 1022.1 0.0
19/10:30pm 2.4 -0.9 0.1 85 0.9 N 7 9 4 5 1022.1 1022.1 0.0
19/10:00pm 2.6 -0.6 0.5 86 0.8 N 7 9 4 5 1022.2 1022.3 0.0
19/09:30pm 2.9 0.2 0.3 83 1.0 SE 4 7 2 4 1022.1 1022.1 0.0
19/09:00pm 3.5 0.7 -0.1 77 1.4 ENE 4 7 2 4 1022.1 1022.1 0.0
19/08:30pm 5.5 3.6 0.7 71 2.0 CALM 0 0 0 0 1021.9 1021.9 0.0
19/08:00pm 5.0 1.9 0.2 71 1.9 E 6 7 3 4 1021.8 1021.8 0.0
19/07:30pm 7.4 3.5 1.0 64 2.7 NW 11 15 6 8 1021.2 1021.3 0.0
19/07:00pm 6.0 2.1 1.0 70 2.0 NNW 11 15 6 8 1020.9 1021.0 0.0
19/06:30pm 8.6 3.5 0.6 57 3.3 WNW 17 20 9 11 1020.5 1020.5 0.0
19/06:00pm 9.5 5.0 -0.1 51 4.0 W 13 17 7 9 1020.2 1020.2 0.0
19/05:30pm 11.6 6.4 0.1 45 4.9 W 17 22 9 12 1020.0 1020.0 0.0
19/05:00pm 12.8 6.1 -0.8 39 5.7 WNW 24 32 13 17 1019.5 1019.6 0.0
19/04:30pm 13.6 6.5 -1.2 36 6.2 W 26 32 14 17 1019.2 1019.2 0.0
19/04:00pm 14.3 8.0 -0.9 35 6.5 W 22 30 12 16 1019.0 1019.0 0.0
19/03:30pm 14.8 8.1 -0.9 34 6.7 W 24 28 13 15 1018.9 1018.9 0.0
19/03:00pm 14.8 8.1 -0.9 34 6.7 WNW 24 32 13 17 1019.0 1019.0 0.0
19/02:30pm 14.8 8.7 -2.1 31 7.1 WNW 20 30 11 16 1019.1 1019.1 0.0
19/02:00pm 14.2 8.2 -1.8 33 6.7 WNW 20 28 11 15 1019.4 1019.4 0.0
19/01:30pm 14.2 8.2 -1.8 33 6.7 W 20 30 11 16 1019.6 1019.7 0.0
19/01:00pm 13.8 8.4 1.5 43 5.5 WNW 19 32 10 17 1019.9 1019.9 0.0
19/12:30pm 13.7 8.2 2.0 45 5.3 W 20 28 11 15 1020.3 1020.3 0.0
19/12:00pm 12.8 8.0 2.6 50 4.6 WNW 17 24 9 13 1020.6 1020.6 0.0
19/11:30am 12.4 7.5 3.9 56 4.0 W 19 28 10 15 1021.1 1021.2 0.0
19/11:00am 11.7 6.5 2.7 54 4.1 W 19 26 10 14 1021.6 1021.6 0.0
19/10:30am 10.6 5.2 2.2 56 3.7 W 20 28 11 15 1021.8 1021.8 0.0
19/10:00am 9.9 4.1 2.3 59 3.3 W 22 30 12 16 1022.0 1022.0 0.0
19/09:30am 9.4 4.5 4.0 69 2.5 W 19 26 10 14 1022.2 1022.3 0.0
19/09:00am 8.3 3.9 2.8 68 2.4 W 15 20 8 11 1022.2 1022.3 0.0
19/08:30am 6.2 2.6 2.7 78 1.5 NNW 11 15 6 8 1022.3 1022.4 0.0
19/08:00am 4.8 0.7 2.3 84 1.0 NW 13 17 7 9 1022.2 1022.3 0.0
19/07:30am 2.8 0.0 1.9 94 0.4 N 6 13 3 7 1022.1 1022.1 0.0
19/07:00am -0.5 -2.6 -1.1 96 0.2 CALM 0 0 0 0 1022.0 1022.0 0.0
19/06:30am -3.0 -5.8 -3.7 95 0.1 SE 2 6 1 3 1021.8 1021.8 0.0
19/06:00am -3.8 -7.1 -4.8 93 0.2 SSE 4 7 2 4 1021.6 1021.6 0.0
19/05:30am -2.9 -5.4 -3.7 94 0.1 CALM 0 0 0 0 1021.2 1021.3 0.0
19/05:00am -3.2 -5.7 -4.3 92 0.2 CALM 0 0 0 0 1020.9 1021.0 0.0
19/04:30am -2.8 -6.4 -3.9 92 0.2 NNE 6 6 3 3 1020.7 1020.7 0.0
19/04:00am -2.5 -5.0 -3.6 92 0.3 CALM 0 0 0 0 1020.6 1020.6 0.0
19/03:30am -1.1 -3.7 -1.9 94 0.2 NNE 2 6 1 3 1020.5 1020.5 0.0
19/03:00am -1.0 -4.0 -2.1 92 0.3 NNE 4 9 2 5 1020.6 1020.6 0.0
19/02:30am -0.2 -2.4 -1.2 93 0.4 CALM 0 0 0 0 1020.5 1020.5 0.0
19/02:00am -0.3 -3.8 -1.6 91 0.5 N 7 9 4 5 1020.8 1020.8 0.0
19/01:30am -0.2 -3.5 -1.6 90 0.5 NNW 6 7 3 4 1020.9 1021.0 0.0
19/01:00am 0.7 -3.1 -0.6 91 0.5 NNW 9 11 5 6 1021.2 1021.3 0.0
19/12:30am 0.8 -2.4 -0.6 90 0.5 N 6 9 3 5 1021.2 1021.3 0.0
19/12:00am 1.3 -2.5 -0.5 88 0.7 NW 9 9 5 5 1021.2 1021.3 0.0
 
Date/Time
EST
Temp
°C
App
Temp
°C
Dew
Point
Rel
Hum
%
Delta-T
°C
Wind Press
QNH
hPa
Press
MSL
hPa
Rain
since 9 am
mm
Dir
 
Spd
km/h
Gust
km/h
Spd
kts
Gust
kts
18/11:30pm 1.8 -1.9 -0.3 86 0.8 NW 9 11 5 6 1021.6 1021.6 0.0
18/11:00pm 2.6 -1.4 0.2 84 0.9 NW 11 13 6 7 1021.4 1021.5 0.0
18/10:30pm 3.0 -1.1 0.1 81 1.1 WNW 11 15 6 8 1021.3 1021.4 0.0
18/10:00pm 4.8 1.6 0.8 75 1.6 NNW 7 9 4 5 1021.2 1021.3 0.0
18/09:30pm 5.3 1.4 1.4 76 1.6 WNW 11 15 6 8 1021.1 1021.2 0.0
18/09:00pm 5.7 2.3 1.6 75 1.7 NW 9 15 5 8 1021.0 1021.1 0.0
18/08:30pm 5.4 1.9 1.0 73 1.8 NNW 9 9 5 5 1020.9 1021.0 0.0
18/08:00pm 6.6 3.7 1.3 69 2.2 N 6 11 3 6 1020.7 1020.7 0.0
18/07:30pm 6.6 1.6 1.3 69 2.2 NW 17 22 9 12 1020.4 1020.4 0.0
18/07:00pm 6.5 1.1 1.2 69 2.2 WNW 19 24 10 13 1020.1 1020.1 0.0
18/06:30pm 7.2 3.3 0.9 64 2.6 NW 11 15 6 8 1020.1 1020.1 0.0
18/06:00pm 7.8 2.7 1.0 62 2.8 WNW 17 24 9 13 1019.9 1019.9 0.0
18/05:30pm 8.4 1.6 0.9 59 3.2 WNW 26 37 14 20 1019.4 1019.4 0.0
18/05:00pm 9.0 1.9 1.2 58 3.3 WNW 28 37 15 20 1019.0 1019.0 0.0
18/04:30pm 9.7 1.6 0.9 54 3.7 W 33 43 18 23 1018.8 1018.8 0.0
18/04:00pm 10.2 2.1 1.3 54 3.8 WNW 33 44 18 24 1018.5 1018.5 0.0
18/03:30pm 11.1 3.7 1.9 53 4.1 W 30 43 16 23 1018.4 1018.4 0.0
18/03:00pm 11.6 4.4 3.1 56 3.9 WNW 30 43 16 23 1018.3 1018.3 0.0
18/02:30pm 10.9 3.6 2.2 55 3.9 W 30 39 16 21 1018.1 1018.1 0.0
18/02:00pm 11.7 4.3 1.9 51 4.3 W 30 39 16 21 1018.0 1018.0 0.0
18/01:30pm 11.7 4.7 1.9 51 4.3 W 28 37 15 20 1018.1 1018.1 0.0
18/01:00pm 11.4 4.9 2.4 54 4.0 W 26 37 14 20 1018.3 1018.3 0.0
18/12:30pm 10.7 4.0 1.3 52 4.1 W 26 39 14 21 1018.4 1018.4 0.0
18/12:00pm 10.8 4.3 0.0 47 4.5 W 24 32 13 17 1018.7 1018.7 0.0
18/11:30am 10.1 3.9 2.0 57 3.6 W 24 32 13 17 1018.8 1018.8 0.0
18/11:00am 9.4 3.2 2.0 60 3.2 WNW 24 33 13 18 1019.1 1019.1 0.0
18/10:30am 8.6 1.6 1.7 62 3.0 W 28 37 15 20 1019.0 1019.0 0.0
18/10:00am 8.0 0.3 2.5 68 2.4 W 32 39 17 21 1019.2 1019.2 0.0
18/09:30am 7.1 0.1 2.0 70 2.2 WNW 28 35 15 19 1019.1 - 0.0
18/09:00am 6.1 -1.9 1.6 73 1.9 W 33 43 18 23 1019.1 1019.1 0.2
18/08:30am 5.9 -1.9 2.0 76 1.6 W 32 41 17 22 1019.2 - 0.2
18/08:00am 5.1 -2.9 1.4 77 1.5 W 33 43 18 23 1018.9 - 0.2

Other Formats:

Comma delimited format used in spreadsheet applications
http://www.bom.gov.au/fwo/IDN60801/IDN60801.95716.axf

JavaScript Object Notation format (JSON) in row-major order
http://www.bom.gov.au/fwo/IDN60801/IDN60801.95716.json